createdAt,value
2022-09-12T00:01:12.012Z,5.00
2022-09-12T00:03:39.411Z,4.57
2022-09-12T00:06:19.276Z,4.17
2022-09-12T00:08:49.634Z,4.27
2022-09-12T00:11:16.632Z,3.30
2022-09-12T00:13:43.888Z,3.67
2022-09-12T00:16:17.951Z,4.27
2022-09-12T00:18:46.674Z,3.67
2022-09-12T00:21:14.403Z,4.27
2022-09-12T00:23:41.406Z,4.30
2022-09-12T00:26:08.566Z,4.47
2022-09-12T00:28:36.682Z,5.23
2022-09-12T00:30:25.289Z,19.23
2022-09-12T00:31:08.412Z,4.00
2022-09-12T00:32:54.737Z,22.37
2022-09-12T00:33:35.802Z,6.30
2022-09-12T00:35:22.963Z,18.70
2022-09-12T00:36:06.963Z,5.00
2022-09-12T00:38:34.198Z,4.47
2022-09-12T00:40:24.256Z,17.40
2022-09-12T00:41:01.211Z,4.77
2022-09-12T00:43:31.208Z,5.20
2022-09-12T00:45:25.105Z,18.00
2022-09-12T00:45:58.828Z,5.83
2022-09-12T00:47:53.370Z,18.80
2022-09-12T00:48:29.917Z,4.90
2022-09-12T00:50:56.967Z,6.87
2022-09-12T00:52:58.831Z,18.37
2022-09-12T00:53:24.001Z,4.83
2022-09-12T00:55:31.334Z,17.03
2022-09-12T00:55:51.899Z,3.70
2022-09-12T00:58:02.422Z,19.17
2022-09-12T00:58:22.601Z,4.30
2022-09-12T01:00:49.850Z,5.20
2022-09-12T01:03:08.557Z,20.20
2022-09-12T01:03:18.256Z,4.17
2022-09-12T01:05:53.747Z,4.97
2022-09-12T01:08:07.666Z,17.57
2022-09-12T01:08:21.167Z,5.00
2022-09-12T01:10:49.313Z,4.50
2022-09-12T01:13:16.669Z,4.20
2022-09-12T01:15:42.233Z,16.60
2022-09-12T01:15:43.615Z,5.47
2022-09-12T01:18:17.977Z,20.00
2022-09-12T01:18:21.512Z,6.70
2022-09-12T01:21:06.203Z,4.00
2022-09-12T01:24:04.686Z,5.80
2022-09-12T01:26:52.191Z,6.00
2022-09-12T01:29:37.980Z,6.93
2022-09-12T01:30:04.772Z,18.90
2022-09-12T01:32:04.969Z,6.00
2022-09-12T01:34:39.117Z,6.10
2022-09-12T01:37:17.638Z,6.33
2022-09-12T01:40:00.403Z,6.03
2022-09-12T01:40:40.746Z,17.10
2022-09-12T01:42:27.407Z,6.77
2022-09-12T01:43:18.276Z,18.13
2022-09-12T01:45:00.476Z,6.00
2022-09-12T01:47:30.171Z,6.97
2022-09-12T01:50:09.022Z,8.40
2022-09-12T01:52:43.195Z,7.27
2022-09-12T01:53:45.828Z,20.00
2022-09-12T01:55:22.436Z,7.70
2022-09-12T01:56:21.688Z,23.57
2022-09-12T01:58:01.405Z,6.03
2022-09-12T01:58:55.468Z,21.40
2022-09-12T02:00:28.362Z,6.07
2022-09-12T02:01:29.815Z,17.87
2022-09-12T02:03:02.576Z,6.33
2022-09-12T02:04:06.115Z,16.33
2022-09-12T02:05:32.891Z,6.70
2022-09-12T02:06:39.141Z,18.03
2022-09-12T02:08:19.951Z,7.37
2022-09-12T02:10:57.541Z,8.00
2022-09-12T02:11:46.655Z,21.10
2022-09-12T02:13:30.006Z,7.07
2022-09-12T02:16:02.759Z,6.83
2022-09-12T02:16:57.883Z,19.87
2022-09-12T02:18:30.780Z,7.90
2022-09-12T02:19:30.942Z,22.00
2022-09-12T02:20:58.147Z,6.07
2022-09-12T02:22:01.156Z,25.10
2022-09-12T02:23:28.183Z,6.80
2022-09-12T02:25:57.500Z,8.40
2022-09-12T02:27:07.823Z,23.73
2022-09-12T02:28:28.101Z,8.07
2022-09-12T02:29:36.288Z,18.67
2022-09-12T02:31:13.645Z,6.83
2022-09-12T02:32:08.302Z,19.33
2022-09-12T02:33:56.331Z,9.33
2022-09-12T02:34:46.251Z,21.10
2022-09-12T02:36:40.831Z,8.93
2022-09-12T02:39:07.856Z,8.20
2022-09-12T02:41:34.879Z,8.20
2022-09-12T02:42:28.587Z,25.33
2022-09-12T02:44:03.399Z,9.17
2022-09-12T02:44:58.033Z,22.90
2022-09-12T02:46:41.559Z,11.20
2022-09-12T02:47:30.914Z,23.30
2022-09-12T02:49:09.481Z,8.47
2022-09-12T02:50:00.679Z,17.60
2022-09-12T02:51:36.919Z,10.07
2022-09-12T02:54:06.364Z,9.40
2022-09-12T02:55:03.687Z,21.67
2022-09-12T02:56:33.406Z,12.60
2022-09-12T02:57:32.235Z,26.43
2022-09-12T02:59:06.059Z,7.27
2022-09-12T03:00:02.623Z,23.60
2022-09-12T03:01:39.128Z,7.43
2022-09-12T03:02:40.209Z,23.57
2022-09-12T03:04:24.716Z,6.70
2022-09-12T03:06:51.623Z,9.20
2022-09-12T03:09:42.335Z,8.27
2022-09-12T03:11:09.812Z,24.83
2022-09-12T03:12:11.895Z,10.47
2022-09-12T03:14:53.051Z,10.93
2022-09-12T03:17:23.197Z,10.10
2022-09-12T03:19:53.689Z,11.47
2022-09-12T03:22:20.603Z,9.80
2022-09-12T03:24:22.640Z,20.40
2022-09-12T03:25:13.016Z,8.27
2022-09-12T03:27:41.557Z,11.80
2022-09-12T03:29:25.637Z,24.80
2022-09-12T03:30:08.990Z,10.73
2022-09-12T03:32:42.940Z,11.10
2022-09-12T03:35:10.811Z,12.17
2022-09-12T03:36:59.981Z,28.97
2022-09-12T03:37:37.847Z,11.90
2022-09-12T03:39:29.074Z,26.63
2022-09-12T03:40:05.666Z,11.03
2022-09-12T03:42:32.803Z,11.80
2022-09-12T03:44:30.941Z,27.53
2022-09-12T03:44:59.762Z,21.47
2022-09-12T03:46:59.328Z,24.77
2022-09-12T03:47:26.716Z,10.30
2022-09-12T03:49:53.671Z,11.97
2022-09-12T03:52:01.763Z,25.40
2022-09-12T03:52:20.659Z,12.10
2022-09-12T03:54:30.123Z,23.30
2022-09-12T03:54:47.651Z,11.00
2022-09-12T03:56:58.763Z,23.97
2022-09-12T03:57:14.613Z,11.23
2022-09-12T03:59:41.607Z,14.40
2022-09-12T04:02:00.581Z,28.33
2022-09-12T04:02:09.832Z,13.57
2022-09-12T04:04:29.315Z,26.63
2022-09-12T04:04:36.814Z,12.97
2022-09-12T04:07:03.827Z,11.80
2022-09-12T04:09:30.768Z,12.17
2022-09-12T04:11:57.755Z,9.60
2022-09-12T04:12:00.538Z,26.60
2022-09-12T04:14:24.926Z,12.70
2022-09-12T04:14:28.769Z,20.77
2022-09-12T04:16:52.055Z,11.70
2022-09-12T04:19:19.032Z,10.60
2022-09-12T04:19:30.609Z,26.13
2022-09-12T04:21:46.052Z,11.80
2022-09-12T04:21:59.083Z,26.60
2022-09-12T04:24:13.040Z,12.77
2022-09-12T04:24:28.510Z,22.47
2022-09-12T04:26:39.978Z,11.37
2022-09-12T04:29:06.924Z,12.17
2022-09-12T04:31:33.936Z,13.27
2022-09-12T04:34:01.515Z,12.03
2022-09-12T04:34:32.517Z,26.60
2022-09-12T04:36:29.351Z,13.30
2022-09-12T04:37:01.034Z,21.67
2022-09-12T04:38:56.662Z,13.40
2022-09-12T04:41:25.051Z,12.97
2022-09-12T04:43:53.011Z,11.80
2022-09-12T04:46:20.327Z,12.50
2022-09-12T04:47:07.031Z,22.37
2022-09-12T04:48:47.855Z,11.30
2022-09-12T04:49:35.772Z,22.17
2022-09-12T04:51:20.134Z,17.23
2022-09-12T04:52:04.278Z,25.70
2022-09-12T04:53:51.048Z,13.50
2022-09-12T04:54:34.306Z,24.60
2022-09-12T04:56:18.399Z,13.20
2022-09-12T04:57:02.606Z,27.43
2022-09-12T04:58:45.556Z,11.80
2022-09-12T04:59:31.505Z,27.10
2022-09-12T05:01:17.026Z,11.87
2022-09-12T05:02:00.302Z,23.83
2022-09-12T05:03:44.512Z,12.53
2022-09-12T05:06:14.411Z,11.63
2022-09-12T05:06:56.773Z,25.00
2022-09-12T05:08:41.390Z,11.33
2022-09-12T05:11:10.716Z,11.00
2022-09-12T05:12:04.696Z,21.43
2022-09-12T05:13:38.813Z,11.10
2022-09-12T05:14:34.123Z,24.90
2022-09-12T05:16:06.608Z,12.73
2022-09-12T05:17:03.097Z,25.27
2022-09-12T05:18:34.711Z,13.37
2022-09-12T05:21:02.441Z,14.43
2022-09-12T05:23:29.556Z,15.37
2022-09-12T05:24:47.272Z,24.37
2022-09-12T05:25:57.766Z,15.57
2022-09-12T05:27:20.286Z,21.67
2022-09-12T05:28:25.366Z,11.73
2022-09-12T05:31:06.039Z,14.70
2022-09-12T05:33:34.095Z,12.87
2022-09-12T05:36:01.388Z,12.97
2022-09-12T05:37:26.187Z,21.37
2022-09-12T05:38:29.244Z,18.70
2022-09-12T05:39:54.929Z,22.03
2022-09-12T05:41:06.328Z,13.30
2022-09-12T05:42:25.976Z,22.47
2022-09-12T05:43:34.246Z,14.73
2022-09-12T05:44:54.368Z,21.03
2022-09-12T05:46:02.145Z,14.07
2022-09-12T05:47:24.231Z,17.07
2022-09-12T05:48:29.131Z,15.47
2022-09-12T05:51:03.170Z,14.00
2022-09-12T05:52:22.420Z,21.40
2022-09-12T05:53:31.048Z,16.13
2022-09-12T05:56:24.588Z,18.07
2022-09-12T05:59:00.904Z,19.43
2022-09-12T06:01:28.564Z,18.00
2022-09-12T06:03:56.791Z,17.07
2022-09-12T06:06:24.636Z,17.53
2022-09-12T06:08:53.046Z,15.97
2022-09-12T06:11:21.691Z,18.03
2022-09-12T06:13:48.812Z,15.57
2022-09-12T06:16:26.642Z,15.30
2022-09-12T06:18:54.849Z,15.47
2022-09-12T06:21:22.257Z,18.10
2022-09-12T06:23:49.695Z,15.00
2022-09-12T06:26:17.946Z,17.80
2022-09-12T06:28:46.412Z,17.13
2022-09-12T06:31:17.803Z,19.00
2022-09-12T06:33:35.586Z,19.13
2022-09-12T06:33:45.946Z,17.57
2022-09-12T06:36:14.228Z,25.90
2022-09-12T06:36:14.940Z,19.43
2022-09-12T06:38:41.357Z,23.37
2022-09-12T06:41:09.482Z,21.67
2022-09-12T06:43:37.023Z,28.60
2022-09-12T06:46:04.577Z,25.30
2022-09-12T06:48:31.667Z,26.30
2022-09-12T06:49:44.670Z,20.33
2022-09-12T06:51:02.634Z,25.10
2022-09-12T06:52:13.625Z,20.10
2022-09-12T06:53:30.585Z,24.87
2022-09-12T06:54:43.046Z,19.57
2022-09-12T06:55:58.584Z,26.33
2022-09-12T06:58:29.539Z,34.73
2022-09-12T07:00:26.535Z,19.87
2022-09-12T07:01:03.537Z,32.17
2022-09-12T07:02:58.198Z,19.87
2022-09-12T07:03:30.644Z,28.53
2022-09-12T07:05:40.634Z,18.80
2022-09-12T07:05:57.637Z,29.80
2022-09-12T07:08:24.802Z,29.80
2022-09-12T07:10:51.771Z,27.37
2022-09-12T07:13:19.800Z,26.90
2022-09-12T07:15:46.861Z,21.13
2022-09-12T07:18:13.951Z,25.63
2022-09-12T07:20:41.574Z,31.40
2022-09-12T07:23:08.925Z,25.77
2022-09-12T07:25:36.118Z,31.57
2022-09-12T07:28:03.446Z,23.53
2022-09-12T07:30:30.460Z,23.00
2022-09-12T07:31:11.827Z,20.60
2022-09-12T07:32:57.461Z,19.40
2022-09-12T07:35:24.480Z,23.43
2022-09-12T07:36:55.414Z,15.97
2022-09-12T07:37:51.432Z,21.53
2022-09-12T07:39:38.190Z,17.40
2022-09-12T07:40:18.468Z,21.60
2022-09-12T07:42:09.333Z,16.60
2022-09-12T07:42:45.563Z,21.47
2022-09-12T07:44:41.958Z,18.57
2022-09-12T07:45:12.879Z,20.20
2022-09-12T07:47:30.041Z,18.93
2022-09-12T07:47:40.773Z,17.67
2022-09-12T07:50:02.134Z,16.40
2022-09-12T07:50:08.009Z,24.53
2022-09-12T07:52:34.959Z,21.63
2022-09-12T07:55:03.009Z,18.30
2022-09-12T07:57:30.054Z,17.20
2022-09-12T07:59:56.560Z,18.33
2022-09-12T08:02:23.100Z,15.27
2022-09-12T08:04:49.719Z,22.23
2022-09-12T08:07:04.209Z,14.00
2022-09-12T08:07:18.240Z,16.63
2022-09-12T08:09:45.290Z,14.90
2022-09-12T08:09:48.582Z,18.50
2022-09-12T08:12:12.354Z,13.57
2022-09-12T08:12:36.302Z,15.93
2022-09-12T08:14:39.391Z,12.73
2022-09-12T08:17:06.673Z,11.80
2022-09-12T08:19:33.638Z,10.97
2022-09-12T08:22:00.741Z,13.00
2022-09-12T08:24:27.761Z,10.30
2022-09-12T08:26:54.788Z,10.53
2022-09-12T08:29:21.802Z,9.47
2022-09-12T08:31:48.805Z,9.00
2022-09-12T08:34:18.583Z,8.30
2022-09-12T08:36:46.135Z,7.27
2022-09-12T08:39:14.292Z,6.60
2022-09-12T08:40:02.422Z,14.90
2022-09-12T08:41:48.269Z,6.97
2022-09-12T08:44:18.014Z,6.07
2022-09-12T08:45:51.320Z,12.57
2022-09-12T08:46:57.108Z,5.50
2022-09-12T08:48:21.287Z,12.87
2022-09-12T08:49:28.301Z,5.83
2022-09-12T08:51:56.250Z,4.30
2022-09-12T08:54:28.862Z,4.23
2022-09-12T08:57:02.054Z,4.33
2022-09-12T08:59:33.088Z,4.50
2022-09-12T09:02:01.657Z,4.37
2022-09-12T09:04:41.553Z,4.50
2022-09-12T09:06:10.259Z,11.50
2022-09-12T09:07:16.519Z,3.07
2022-09-12T09:10:06.616Z,3.10
2022-09-12T09:12:40.416Z,2.30
2022-09-12T09:15:26.360Z,3.20
2022-09-12T09:17:54.924Z,6.90
2022-09-12T09:18:59.017Z,9.73
2022-09-12T09:20:33.483Z,3.87
2022-09-12T09:23:08.897Z,2.13
2022-09-12T09:25:41.308Z,1.90
2022-09-12T09:27:55.248Z,10.70
2022-09-12T09:28:13.108Z,1.50
2022-09-12T09:30:42.285Z,3.10
2022-09-12T09:33:12.259Z,3.53
2022-09-12T09:33:12.569Z,8.70
2022-09-12T09:35:44.228Z,1.37
2022-09-12T09:35:46.550Z,6.90
2022-09-12T09:38:22.837Z,2.63
2022-09-12T09:38:54.317Z,8.20
2022-09-12T09:41:05.268Z,2.03
2022-09-12T09:43:32.314Z,4.13
2022-09-12T09:46:00.587Z,1.97
2022-09-12T09:48:31.416Z,1.63
2022-09-12T09:51:00.255Z,1.53
2022-09-12T09:53:34.799Z,1.87
2022-09-12T09:56:00.660Z,8.00
2022-09-12T09:56:03.406Z,4.20
2022-09-12T09:58:31.146Z,1.33
2022-09-12T09:59:00.270Z,7.17
2022-09-12T10:01:15.565Z,1.73
2022-09-12T10:01:31.535Z,7.30
2022-09-12T10:03:48.383Z,1.73
2022-09-12T10:04:15.166Z,7.70
2022-09-12T10:06:21.274Z,1.73
2022-09-12T10:08:49.469Z,1.90
2022-09-12T10:11:16.405Z,2.90
2022-09-12T10:13:14.308Z,5.83
2022-09-12T10:13:53.157Z,2.03
2022-09-12T10:16:22.531Z,2.60
2022-09-12T10:18:53.011Z,2.13
2022-09-12T10:21:29.538Z,5.30
2022-09-12T10:24:05.719Z,1.70
2022-09-12T10:26:34.299Z,1.60
2022-09-12T10:29:04.455Z,2.50
2022-09-12T10:31:43.061Z,2.20
2022-09-12T10:34:19.702Z,2.00
2022-09-12T10:36:46.671Z,2.17
2022-09-12T10:39:18.855Z,3.57
2022-09-12T10:41:46.480Z,2.70
2022-09-12T10:44:33.683Z,2.70
2022-09-12T10:47:01.479Z,2.10
2022-09-12T10:49:30.320Z,1.83
2022-09-12T10:51:59.591Z,1.73
2022-09-12T10:54:27.972Z,2.13
2022-09-12T10:55:37.067Z,4.80
2022-09-12T10:56:58.006Z,2.67
2022-09-12T10:59:38.522Z,2.80
2022-09-12T11:02:18.987Z,2.80
2022-09-12T11:05:00.927Z,2.30
2022-09-12T11:07:34.984Z,2.60
2022-09-12T11:10:17.891Z,2.40
2022-09-12T11:13:00.676Z,1.90
2022-09-12T11:15:37.857Z,1.77
2022-09-12T11:16:53.914Z,5.70
2022-09-12T11:18:23.413Z,1.93
2022-09-12T11:21:03.925Z,2.03
2022-09-12T11:23:37.187Z,1.83
2022-09-12T11:26:10.281Z,2.37
2022-09-12T11:28:47.787Z,2.30
2022-09-12T11:31:21.612Z,1.70
2022-09-12T11:33:53.939Z,1.80
2022-09-12T11:35:26.378Z,5.07
2022-09-12T11:36:30.013Z,1.87
2022-09-12T11:38:33.607Z,5.20
2022-09-12T11:39:02.368Z,1.40
2022-09-12T11:41:35.388Z,2.10
2022-09-12T11:44:02.340Z,2.40
2022-09-12T11:46:19.244Z,5.13
2022-09-12T11:46:39.303Z,2.60
2022-09-12T11:48:53.329Z,5.00
2022-09-12T11:49:15.631Z,3.83
2022-09-12T11:51:49.963Z,5.93
2022-09-12T11:54:35.039Z,1.70
2022-09-12T11:57:06.815Z,1.90
2022-09-12T11:59:45.180Z,1.80
2022-09-12T12:02:14.154Z,1.90
2022-09-12T12:04:56.500Z,3.17
2022-09-12T12:07:23.527Z,2.77
2022-09-12T12:09:51.552Z,2.50
2022-09-12T12:12:24.312Z,6.53
2022-09-12T12:14:52.876Z,1.70
2022-09-12T12:17:21.276Z,1.97
2022-09-12T12:19:57.273Z,1.90
2022-09-12T12:22:26.632Z,2.60
2022-09-12T12:24:54.955Z,3.87
2022-09-12T12:27:44.939Z,2.33
2022-09-12T12:30:34.963Z,2.37
2022-09-12T12:33:02.368Z,1.90
2022-09-12T12:35:38.071Z,2.43
2022-09-12T12:38:06.810Z,2.43
2022-09-12T12:40:33.806Z,1.63
2022-09-12T12:43:02.356Z,2.33
2022-09-12T12:45:29.340Z,4.93
2022-09-12T12:47:58.765Z,2.30
2022-09-12T12:50:27.683Z,2.17
2022-09-12T12:52:54.671Z,2.50
2022-09-12T12:53:06.440Z,4.60
2022-09-12T12:55:31.163Z,3.23
2022-09-12T12:55:38.613Z,4.90
2022-09-12T12:57:58.916Z,2.77
2022-09-12T12:58:08.101Z,4.23
2022-09-12T13:00:26.271Z,2.10
2022-09-12T13:00:38.392Z,4.30
2022-09-12T13:03:08.286Z,3.53
2022-09-12T13:05:46.935Z,2.50
2022-09-12T13:05:47.006Z,4.40
2022-09-12T13:08:20.665Z,5.90
2022-09-12T13:08:28.747Z,4.37
2022-09-12T13:10:52.244Z,2.20
2022-09-12T13:10:58.385Z,4.33
2022-09-12T13:13:28.038Z,6.27
2022-09-12T13:13:31.990Z,4.47
2022-09-12T13:15:56.390Z,4.90
2022-09-12T13:15:59.121Z,2.73
2022-09-12T13:18:45.154Z,3.00
2022-09-12T13:21:09.906Z,4.10
2022-09-12T13:21:16.986Z,3.70
2022-09-12T13:23:38.358Z,5.97
2022-09-12T13:23:45.040Z,3.83
2022-09-12T13:26:12.499Z,4.60
2022-09-12T13:26:13.919Z,3.30
2022-09-12T13:28:40.785Z,4.70
2022-09-12T13:28:40.931Z,4.10
2022-09-12T13:31:15.955Z,3.70
2022-09-12T13:33:46.280Z,3.00
2022-09-12T13:33:51.658Z,4.13
2022-09-12T13:36:28.805Z,4.73
2022-09-12T13:36:38.292Z,4.23
2022-09-12T13:38:55.727Z,7.03
2022-09-12T13:39:16.359Z,4.50
2022-09-12T13:41:30.184Z,3.70
2022-09-12T13:41:54.394Z,4.27
2022-09-12T13:43:57.456Z,4.23
2022-09-12T13:44:23.590Z,3.93
2022-09-12T13:46:30.158Z,3.63
2022-09-12T13:46:52.612Z,4.83
2022-09-12T13:48:58.679Z,5.50
2022-09-12T13:49:26.309Z,4.00
2022-09-12T13:51:26.970Z,4.17
2022-09-12T13:51:58.258Z,3.80
2022-09-12T13:53:56.183Z,5.23
2022-09-12T13:54:27.280Z,3.93
2022-09-12T13:56:23.191Z,12.93
2022-09-12T13:56:55.567Z,4.10
2022-09-12T13:58:55.396Z,7.93
2022-09-12T13:59:23.780Z,4.70
2022-09-12T14:01:22.801Z,3.70
2022-09-12T14:04:12.467Z,4.07
2022-09-12T14:04:45.024Z,3.93
2022-09-12T14:06:45.489Z,3.60
2022-09-12T14:07:15.480Z,4.27
2022-09-12T14:09:16.526Z,3.30
2022-09-12T14:09:45.182Z,3.70
2022-09-12T14:11:43.995Z,4.80
2022-09-12T14:12:20.523Z,3.87
2022-09-12T14:14:27.790Z,6.17
2022-09-12T14:14:50.091Z,3.67
2022-09-12T14:16:54.918Z,3.57
2022-09-12T14:17:23.457Z,3.80
2022-09-12T14:19:25.141Z,3.70
2022-09-12T14:19:53.803Z,3.43
2022-09-12T14:21:55.628Z,3.53
2022-09-12T14:22:22.641Z,3.87
2022-09-12T14:24:24.100Z,3.97
2022-09-12T14:26:56.738Z,4.43
2022-09-12T14:29:25.117Z,4.27
2022-09-12T14:30:03.556Z,4.00
2022-09-12T14:32:02.771Z,8.23
2022-09-12T14:32:31.879Z,3.97
2022-09-12T14:34:30.079Z,3.57
2022-09-12T14:35:08.405Z,4.13
2022-09-12T14:36:57.495Z,3.60
2022-09-12T14:37:36.663Z,4.10
2022-09-12T14:39:32.811Z,4.93
2022-09-12T14:40:05.877Z,4.50
2022-09-12T14:42:04.709Z,5.27
2022-09-12T14:44:33.022Z,6.73
2022-09-12T14:45:19.295Z,5.10
2022-09-12T14:47:10.963Z,3.47
2022-09-12T14:47:50.681Z,5.47
2022-09-12T14:49:38.283Z,3.53
2022-09-12T14:50:21.806Z,5.70
2022-09-12T14:52:06.409Z,3.50
2022-09-12T14:53:03.976Z,4.43
2022-09-12T14:54:37.218Z,2.97
2022-09-12T14:57:17.244Z,3.73
2022-09-12T14:59:44.224Z,2.57
2022-09-12T15:00:57.023Z,4.20
2022-09-12T15:02:16.960Z,3.40
2022-09-12T15:04:46.263Z,4.73
2022-09-12T15:06:07.890Z,4.50
2022-09-12T15:07:31.575Z,3.70
2022-09-12T15:08:36.229Z,5.03
2022-09-12T15:09:59.877Z,3.40
2022-09-12T15:12:27.344Z,4.27
2022-09-12T15:14:58.619Z,3.70
2022-09-12T15:17:25.539Z,3.33
2022-09-12T15:18:46.886Z,5.63
2022-09-12T15:19:52.543Z,3.73
2022-09-12T15:22:20.959Z,4.37
2022-09-12T15:23:52.216Z,4.57
2022-09-12T15:24:47.973Z,3.93
2022-09-12T15:27:14.948Z,3.57
2022-09-12T15:29:41.917Z,3.50
2022-09-12T15:32:14.485Z,3.57
2022-09-12T15:34:04.079Z,5.50
2022-09-12T15:34:41.429Z,3.33
2022-09-12T15:36:33.337Z,5.23
2022-09-12T15:37:13.851Z,3.67
2022-09-12T15:39:41.096Z,4.40
2022-09-12T15:41:36.947Z,5.80
2022-09-12T15:42:09.496Z,3.80
2022-09-12T15:44:05.240Z,5.53
2022-09-12T15:44:36.435Z,2.80
2022-09-12T15:47:03.591Z,3.87
2022-09-12T15:49:06.966Z,4.87
2022-09-12T15:49:30.556Z,2.87
2022-09-12T15:51:36.677Z,4.90
2022-09-12T15:51:57.503Z,2.80
2022-09-12T15:54:05.605Z,4.80
2022-09-12T15:54:24.458Z,3.17
2022-09-12T15:56:51.413Z,3.33
2022-09-12T15:59:07.018Z,5.53
2022-09-12T15:59:18.395Z,3.70
2022-09-12T16:01:35.230Z,4.63
2022-09-12T16:01:45.359Z,2.93
2022-09-12T16:04:06.593Z,6.10
2022-09-12T16:04:23.475Z,4.90
2022-09-12T16:06:37.362Z,5.10
2022-09-12T16:06:51.047Z,3.67
2022-09-12T16:09:05.915Z,4.83
2022-09-12T16:09:18.208Z,3.47
2022-09-12T16:11:35.204Z,4.40
2022-09-12T16:11:45.520Z,4.43
2022-09-12T16:14:03.737Z,5.20
2022-09-12T16:14:16.174Z,3.13
2022-09-12T16:16:32.209Z,5.23
2022-09-12T16:16:43.850Z,2.93
2022-09-12T16:19:00.414Z,5.07
2022-09-12T16:19:12.391Z,3.30
2022-09-12T16:21:39.516Z,3.60
2022-09-12T16:24:03.225Z,4.53
2022-09-12T16:24:06.543Z,3.47
2022-09-12T16:26:33.998Z,3.27
2022-09-12T16:29:01.048Z,3.70
2022-09-12T16:29:04.619Z,4.77
2022-09-12T16:31:28.972Z,4.37
2022-09-12T16:31:32.916Z,5.57
2022-09-12T16:33:56.062Z,3.27
2022-09-12T16:36:23.599Z,3.67
2022-09-12T16:36:34.375Z,5.10
2022-09-12T16:38:54.415Z,3.30
2022-09-12T16:39:03.972Z,5.73
2022-09-12T16:41:22.354Z,6.50
2022-09-12T16:41:32.214Z,4.37
2022-09-12T16:43:49.345Z,7.87
2022-09-12T16:46:20.626Z,5.83
2022-09-12T16:48:52.666Z,3.90
2022-09-12T16:49:02.544Z,5.67
2022-09-12T16:51:24.314Z,5.30
2022-09-12T16:51:33.173Z,4.47
2022-09-12T16:53:51.639Z,4.97
2022-09-12T16:56:18.952Z,4.50
2022-09-12T16:56:35.746Z,4.83
2022-09-12T16:58:45.955Z,5.03
2022-09-12T17:01:14.223Z,4.63
2022-09-12T17:01:37.535Z,5.33
2022-09-12T17:03:41.244Z,4.17
2022-09-12T17:04:06.661Z,5.07
2022-09-12T17:06:09.723Z,4.97
2022-09-12T17:06:35.027Z,4.30
2022-09-12T17:08:40.790Z,3.80
2022-09-12T17:09:04.295Z,4.83
2022-09-12T17:11:09.112Z,4.13
2022-09-12T17:14:00.243Z,3.73
2022-09-12T17:14:10.304Z,4.20
2022-09-12T17:16:23.616Z,3.47
2022-09-12T17:16:39.795Z,4.13
2022-09-12T17:18:52.003Z,4.53
2022-09-12T17:19:08.517Z,4.20
2022-09-12T17:21:19.278Z,3.67
2022-09-12T17:21:37.099Z,4.50
2022-09-12T17:23:46.693Z,3.43
2022-09-12T17:24:05.683Z,5.07
2022-09-12T17:26:14.907Z,3.93
2022-09-12T17:28:41.873Z,4.13
2022-09-12T17:29:08.446Z,4.00
2022-09-12T17:31:10.176Z,7.03
2022-09-12T17:31:36.745Z,3.70
2022-09-12T17:33:37.189Z,4.10
2022-09-12T17:34:05.211Z,4.70
2022-09-12T17:36:05.413Z,7.47
2022-09-12T17:36:33.971Z,3.90
2022-09-12T17:38:38.067Z,5.27
2022-09-12T17:39:03.611Z,3.43
2022-09-12T17:41:08.977Z,6.10
2022-09-12T17:41:32.785Z,5.17
2022-09-12T17:43:37.808Z,5.53
2022-09-12T17:44:03.518Z,4.97
2022-09-12T17:46:05.335Z,7.70
2022-09-12T17:46:34.924Z,3.80
2022-09-12T17:48:33.083Z,9.13
2022-09-12T17:51:06.692Z,11.20
2022-09-12T17:51:37.605Z,6.93
2022-09-12T17:53:34.510Z,11.40
2022-09-12T17:54:08.198Z,4.40
2022-09-12T17:56:03.003Z,9.20
2022-09-12T17:58:29.960Z,18.30
2022-09-12T18:01:22.461Z,7.60
2022-09-12T18:03:49.896Z,7.60
2022-09-12T18:06:16.832Z,7.13
2022-09-12T18:08:43.830Z,9.23
2022-09-12T18:11:10.767Z,7.03
2022-09-12T18:13:37.919Z,8.93
2022-09-12T18:16:09.725Z,9.07
2022-09-12T18:18:37.397Z,8.27
2022-09-12T18:21:05.768Z,7.53
2022-09-12T18:23:33.378Z,6.60
2022-09-12T18:26:01.268Z,9.37
2022-09-12T18:28:28.344Z,9.77
2022-09-12T18:30:55.517Z,9.30
2022-09-12T18:33:24.188Z,9.10
2022-09-12T18:35:20.088Z,8.93
2022-09-12T18:35:51.551Z,9.77
2022-09-12T18:37:49.723Z,6.57
2022-09-12T18:38:18.643Z,9.60
2022-09-12T18:40:18.489Z,6.70
2022-09-12T18:40:45.880Z,9.03
2022-09-12T18:42:46.330Z,6.20
2022-09-12T18:43:14.211Z,8.73
2022-09-12T18:45:14.525Z,6.57
2022-09-12T18:45:41.324Z,8.70
2022-09-12T18:47:42.777Z,6.60
2022-09-12T18:48:08.365Z,8.10
2022-09-12T18:50:11.291Z,5.97
2022-09-12T18:50:35.479Z,7.57
2022-09-12T18:53:02.692Z,7.60
2022-09-12T18:55:30.739Z,6.40
2022-09-12T18:57:42.028Z,8.07
2022-09-12T18:57:57.748Z,7.20
2022-09-12T19:00:25.112Z,7.27
2022-09-12T19:02:45.744Z,4.13
2022-09-12T19:02:52.143Z,6.80
2022-09-12T19:05:13.979Z,6.70
2022-09-12T19:05:19.122Z,6.63
2022-09-12T19:07:46.119Z,5.90
2022-09-12T19:10:13.088Z,7.10
2022-09-12T19:12:40.039Z,7.00
2022-09-12T19:12:49.495Z,5.40
2022-09-12T19:15:11.833Z,6.60
2022-09-12T19:15:17.706Z,6.40
2022-09-12T19:17:38.792Z,7.57
2022-09-12T19:20:06.227Z,6.53
2022-09-12T19:20:19.420Z,4.33
2022-09-12T19:22:33.189Z,6.40
2022-09-12T19:22:48.632Z,8.03
2022-09-12T19:25:00.446Z,6.23
2022-09-12T19:27:27.383Z,7.13
2022-09-12T19:27:50.015Z,8.93
2022-09-12T19:29:54.399Z,6.27
2022-09-12T19:32:21.364Z,6.47
2022-09-12T19:32:51.364Z,11.00
2022-09-12T19:34:48.383Z,7.27
2022-09-12T19:37:15.353Z,6.50
2022-09-12T19:37:51.623Z,8.40
2022-09-12T19:39:44.339Z,6.27
2022-09-12T19:40:19.870Z,9.10
2022-09-12T19:42:11.779Z,6.43
2022-09-12T19:44:39.749Z,7.10
2022-09-12T19:45:20.878Z,4.67
2022-09-12T19:47:07.169Z,6.83
2022-09-12T19:47:49.039Z,5.17
2022-09-12T19:49:35.233Z,6.60
2022-09-12T19:52:05.480Z,6.27
2022-09-12T19:52:45.379Z,7.90
2022-09-12T19:54:33.755Z,7.63
2022-09-12T19:57:00.800Z,10.10
2022-09-12T19:59:27.744Z,7.50
2022-09-12T20:01:54.764Z,6.93
2022-09-12T20:02:52.401Z,4.47
2022-09-12T20:04:21.830Z,7.00
2022-09-12T20:05:23.242Z,3.97
2022-09-12T20:06:48.774Z,7.60
2022-09-12T20:09:15.732Z,7.23
2022-09-12T20:11:42.677Z,8.27
2022-09-12T20:12:59.037Z,5.13
2022-09-12T20:14:09.780Z,9.87
2022-09-12T20:15:26.972Z,6.93
2022-09-12T20:16:36.786Z,6.77
2022-09-12T20:19:08.562Z,8.90
2022-09-12T20:20:29.069Z,3.30
2022-09-12T20:21:36.601Z,5.83
2022-09-12T20:24:05.783Z,5.97
2022-09-12T20:25:31.908Z,3.97
2022-09-12T20:26:33.186Z,6.27
2022-09-12T20:28:00.369Z,7.03
2022-09-12T20:29:00.523Z,6.50
2022-09-12T20:30:28.869Z,4.07
2022-09-12T20:31:27.984Z,9.33
2022-09-12T20:33:55.480Z,6.07
2022-09-12T20:36:23.367Z,5.80
2022-09-12T20:37:58.884Z,4.10
2022-09-12T20:38:56.487Z,6.20
2022-09-12T20:40:27.207Z,4.80
2022-09-12T20:41:27.423Z,6.00
2022-09-12T20:43:54.891Z,5.07
2022-09-12T20:46:22.782Z,7.37
2022-09-12T20:48:00.019Z,3.13
2022-09-12T20:48:50.418Z,6.83
2022-09-12T20:50:29.183Z,3.13
2022-09-12T20:51:18.571Z,7.13
2022-09-12T20:53:45.642Z,5.90
2022-09-12T20:55:30.195Z,4.10
2022-09-12T20:56:15.799Z,5.60
2022-09-12T20:57:59.995Z,3.50
2022-09-12T20:58:44.867Z,7.27
2022-09-12T21:00:30.092Z,4.40
2022-09-12T21:01:16.418Z,6.27
2022-09-12T21:03:44.172Z,6.10
2022-09-12T21:05:31.189Z,3.80
2022-09-12T21:06:17.261Z,5.50
2022-09-12T21:08:44.361Z,5.93
2022-09-12T21:11:11.374Z,6.03
2022-09-12T21:13:38.601Z,5.60
2022-09-12T21:15:36.138Z,3.37
2022-09-12T21:16:06.889Z,5.87
2022-09-12T21:18:34.536Z,5.00
2022-09-12T21:20:37.776Z,3.47
2022-09-12T21:21:01.582Z,10.10
2022-09-12T21:23:07.359Z,4.87
2022-09-12T21:23:28.951Z,7.90
2022-09-12T21:25:35.874Z,4.03
2022-09-12T21:25:56.063Z,6.50
2022-09-12T21:28:23.063Z,5.40
2022-09-12T21:30:38.825Z,3.40
2022-09-12T21:30:50.533Z,5.50
2022-09-12T21:33:18.295Z,6.30
2022-09-12T21:35:40.159Z,4.40
2022-09-12T21:35:45.362Z,5.83
2022-09-12T21:38:08.351Z,4.10
2022-09-12T21:38:12.459Z,7.10
2022-09-12T21:40:39.423Z,5.80
2022-09-12T21:43:10.441Z,5.77
2022-09-12T21:43:10.463Z,4.20
2022-09-12T21:45:39.437Z,5.80
2022-09-12T21:48:06.500Z,4.90
2022-09-12T21:48:13.714Z,3.80
2022-09-12T21:50:33.482Z,4.30
2022-09-12T21:50:41.906Z,3.77
2022-09-12T21:53:00.419Z,4.07
2022-09-12T21:53:10.056Z,3.53
2022-09-12T21:55:27.751Z,4.53
2022-09-12T21:55:38.228Z,3.90
2022-09-12T21:57:55.090Z,4.37
2022-09-12T21:58:07.781Z,3.83
2022-09-12T22:00:22.639Z,4.80
2022-09-12T22:02:49.809Z,4.67
2022-09-12T22:03:10.303Z,4.50
2022-09-12T22:05:17.415Z,7.27
2022-09-12T22:07:44.631Z,4.70
2022-09-12T22:08:08.431Z,4.10
2022-09-12T22:10:11.605Z,4.00
2022-09-12T22:10:36.583Z,4.27
2022-09-12T22:12:40.718Z,4.20
2022-09-12T22:15:36.236Z,4.20
2022-09-12T22:17:57.116Z,5.57